Time;durP1;ratioP1;P1;durP2;ratioP2;P2;SDS_P1;SDS_P2;PMS_P1;PMS_P2;Temp;Humidity;BMP_temperature;BMP_pressure;BME280_temperature;BME280_humidity;BME280_pressure;Samples;Min_cycle;Max_cycle;Signal;HPM_P1;HPM_P2
2021/04/30 00:00:10;;;;;;;1.20;1.10;;;;;;;;;;5030723;28;20037;-46
2021/04/30 00:02:37;;;;;;;1.20;1.20;;;;;;;;;;5024980;28;20038;-47
2021/04/30 00:05:03;;;;;;;1.13;1.13;;;;;;;;;;5015391;28;20132;-48
2021/04/30 00:07:30;;;;;;;1.20;1.10;;;;;;;;;;5030594;28;20034;-45
2021/04/30 00:09:56;;;;;;;1.48;1.08;;;;;;;;;;5029542;28;20390;-46
2021/04/30 00:12:22;;;;;;;1.73;1.20;;;;;;;;;;5018826;28;20133;-44
2021/04/30 00:14:49;;;;;;;2.25;1.00;;;;;;;;;;5025426;28;20069;-46
2021/04/30 00:17:15;;;;;;;1.67;1.02;;;;;;;;;;5022676;28;20065;-44
2021/04/30 00:19:42;;;;;;;1.60;1.10;;;;;;;;;;5030169;28;20037;-46
2021/04/30 00:22:08;;;;;;;1.40;1.00;;;;;;;;;;5027740;28;20049;-44
2021/04/30 00:24:36;;;;;;;2.22;1.00;;;;;;;;;;5013377;28;20124;-45
2021/04/30 00:27:03;;;;;;;1.10;1.10;;;;;;;;;;5025386;28;20046;-47
2021/04/30 00:29:29;;;;;;;1.55;1.00;;;;;;;;;;5028829;28;20056;-47
2021/04/30 00:31:55;;;;;;;1.65;1.33;;;;;;;;;;5030176;28;20057;-45
2021/04/30 00:34:22;;;;;;;1.63;1.40;;;;;;;;;;5028989;28;20041;-47
2021/04/30 00:36:48;;;;;;;1.30;1.00;;;;;;;;;;5023468;28;20038;-45
2021/04/30 00:39:14;;;;;;;1.58;1.40;;;;;;;;;;5023693;28;20686;-46
2021/04/30 00:41:42;;;;;;;1.30;1.20;;;;;;;;;;5020546;28;20579;-48
2021/04/30 00:44:09;;;;;;;3.17;1.08;;;;;;;;;;5030642;28;20053;-43
2021/04/30 00:46:35;;;;;;;1.60;1.00;;;;;;;;;;5025925;28;20048;-49
2021/04/30 00:49:03;;;;;;;1.15;1.08;;;;;;;;;;5027961;28;20084;-47
2021/04/30 00:51:29;;;;;;;1.10;1.10;;;;;;;;;;5022327;28;20038;-44
2021/04/30 00:53:56;;;;;;;2.95;1.10;;;;;;;;;;5019127;28;20033;-45
2021/04/30 00:56:22;;;;;;;1.77;1.10;;;;;;;;;;5014426;28;20126;-45
2021/04/30 00:58:49;;;;;;;1.20;1.20;;;;;;;;;;5023489;28;20051;-48
2021/04/30 01:01:16;;;;;;;1.77;1.67;;;;;;;;;;5012084;28;20037;-46
2021/04/30 01:03:43;;;;;;;1.30;1.20;;;;;;;;;;5023873;28;20532;-45
2021/04/30 01:06:09;;;;;;;2.58;1.00;;;;;;;;;;5028469;28;20037;-44
2021/04/30 01:08:36;;;;;;;3.10;1.50;;;;;;;;;;5013839;28;20037;-48
2021/04/30 01:11:02;;;;;;;2.08;1.17;;;;;;;;;;5023811;28;20029;-45
2021/04/30 01:13:28;;;;;;;1.00;1.00;;;;;;;;;;5024509;28;20034;-45
2021/04/30 01:15:55;;;;;;;1.45;1.00;;;;;;;;;;5020190;28;20049;-46
2021/04/30 01:18:21;;;;;;;2.05;0.90;;;;;;;;;;5020011;28;20397;-46
2021/04/30 01:20:48;;;;;;;2.17;1.20;;;;;;;;;;5028287;28;20052;-48
2021/04/30 01:23:14;;;;;;;2.00;1.10;;;;;;;;;;5028139;28;20536;-45
2021/04/30 01:25:40;;;;;;;3.22;1.60;;;;;;;;;;5027754;28;20049;-46
2021/04/30 01:28:07;;;;;;;3.03;1.15;;;;;;;;;;5024791;28;20182;-47
2021/04/30 01:30:37;;;;;;;1.08;1.00;;;;;;;;;;5021112;28;20130;-46
2021/04/30 01:33:13;;;;;;;4.55;1.58;;;;;;;;;;5028891;28;20041;-48
2021/04/30 01:35:39;;;;;;;2.92;1.10;;;;;;;;;;5022518;28;20045;-45
2021/04/30 01:38:05;;;;;;;2.25;1.30;;;;;;;;;;5014834;28;20448;-46
2021/04/30 01:40:33;;;;;;;1.63;1.10;;;;;;;;;;5027723;28;20041;-48
2021/04/30 01:43:07;;;;;;;1.30;1.20;;;;;;;;;;5023536;28;20046;-44
2021/04/30 01:46:05;;;;;;;2.22;1.33;;;;;;;;;;5013409;28;20053;-45
2021/04/30 01:48:34;;;;;;;1.20;1.20;;;;;;;;;;5013050;28;20058;-44
2021/04/30 01:51:01;;;;;;;3.75;1.10;;;;;;;;;;5020486;28;20053;-46
2021/04/30 01:53:29;;;;;;;1.45;1.35;;;;;;;;;;5025980;28;20047;-45
2021/04/30 01:55:55;;;;;;;1.10;1.10;;;;;;;;;;5018778;28;20046;-47
2021/04/30 01:58:22;;;;;;;2.08;1.65;;;;;;;;;;5022906;28;20089;-45
2021/04/30 02:00:49;;;;;;;5.88;1.20;;;;;;;;;;5026889;28;20037;-44
2021/04/30 02:03:15;;;;;;;1.30;1.20;;;;;;;;;;5020686;28;20052;-47
2021/04/30 02:05:42;;;;;;;3.78;1.63;;;;;;;;;;5009185;28;20057;-44
2021/04/30 02:08:12;;;;;;;2.95;2.00;;;;;;;;;;5025286;28;20045;-45
2021/04/30 02:10:39;;;;;;;1.35;1.20;;;;;;;;;;5025726;28;20041;-46
2021/04/30 02:13:07;;;;;;;1.83;1.73;;;;;;;;;;5022786;28;20077;-46
2021/04/30 02:15:34;;;;;;;1.85;1.75;;;;;;;;;;5025094;28;20158;-45
2021/04/30 02:18:00;;;;;;;2.05;1.90;;;;;;;;;;5013672;28;20050;-44
2021/04/30 02:20:27;;;;;;;1.70;1.60;;;;;;;;;;5028884;28;20061;-44
2021/04/30 02:22:53;;;;;;;4.65;1.70;;;;;;;;;;5011761;28;20116;-44
2021/04/30 02:25:20;;;;;;;4.47;1.85;;;;;;;;;;5031311;28;20044;-44
2021/04/30 02:27:48;;;;;;;7.03;1.98;;;;;;;;;;5027735;28;20479;-45
2021/04/30 02:30:16;;;;;;;5.38;2.72;;;;;;;;;;5028834;28;20573;-46
2021/04/30 02:32:42;;;;;;;2.17;2.05;;;;;;;;;;5032123;28;20050;-47
2021/04/30 02:35:12;;;;;;;3.33;1.80;;;;;;;;;;5032367;28;20068;-48
2021/04/30 02:37:41;;;;;;;3.63;1.90;;;;;;;;;;5032187;28;20441;-48
2021/04/30 02:40:08;;;;;;;2.05;1.92;;;;;;;;;;5031429;28;20030;-44
2021/04/30 02:42:35;;;;;;;7.65;2.40;;;;;;;;;;5025117;28;20053;-46
2021/04/30 02:45:03;;;;;;;1.63;1.52;;;;;;;;;;5025437;28;20406;-45
2021/04/30 02:47:31;;;;;;;5.70;2.22;;;;;;;;;;5025982;28;20041;-44
2021/04/30 02:50:00;;;;;;;2.15;1.42;;;;;;;;;;5029514;28;20116;-46
2021/04/30 02:52:27;;;;;;;2.30;1.48;;;;;;;;;;5022617;28;20038;-45
2021/04/30 02:54:53;;;;;;;2.35;2.00;;;;;;;;;;5020729;28;20037;-45
2021/04/30 02:57:19;;;;;;;2.55;1.85;;;;;;;;;;5029295;28;20041;-48
2021/04/30 02:59:46;;;;;;;4.82;1.42;;;;;;;;;;5026552;28;20029;-45
2021/04/30 03:02:13;;;;;;;2.40;1.60;;;;;;;;;;5030934;28;20026;-45
2021/04/30 03:04:40;;;;;;;2.05;1.88;;;;;;;;;;5023406;28;20462;-47
2021/04/30 03:07:07;;;;;;;3.38;1.65;;;;;;;;;;5029389;28;20076;-46
2021/04/30 03:09:34;;;;;;;4.72;1.80;;;;;;;;;;5032445;28;20041;-45
2021/04/30 03:12:01;;;;;;;4.90;3.00;;;;;;;;;;5028922;28;20077;-45
2021/04/30 03:14:27;;;;;;;2.65;1.40;;;;;;;;;;5030990;28;20368;-45
2021/04/30 03:16:54;;;;;;;4.30;1.63;;;;;;;;;;5029527;28;20048;-45
2021/04/30 03:19:21;;;;;;;1.95;1.67;;;;;;;;;;5028184;28;20041;-45
2021/04/30 03:21:47;;;;;;;3.33;1.40;;;;;;;;;;5024161;28;20041;-47
2021/04/30 03:24:14;;;;;;;1.90;1.48;;;;;;;;;;5028223;28;20045;-48
2021/04/30 03:26:40;;;;;;;2.10;1.52;;;;;;;;;;5029417;28;20686;-45
2021/04/30 03:29:06;;;;;;;1.60;1.50;;;;;;;;;;5028427;28;20728;-45
2021/04/30 03:31:32;;;;;;;1.70;1.60;;;;;;;;;;5022953;28;20044;-44
2021/04/30 03:33:59;;;;;;;1.50;1.38;;;;;;;;;;5031627;28;20041;-46
2021/04/30 03:36:25;;;;;;;2.42;1.50;;;;;;;;;;5028898;28;20607;-48
2021/04/30 03:38:52;;;;;;;3.10;1.50;;;;;;;;;;5029290;28;20032;-45
2021/04/30 03:41:19;;;;;;;1.90;1.80;;;;;;;;;;5030228;28;20034;-45
2021/04/30 03:43:45;;;;;;;3.08;1.52;;;;;;;;;;5024353;28;20083;-44
2021/04/30 03:46:12;;;;;;;1.58;1.45;;;;;;;;;;5013902;28;20049;-45
2021/04/30 03:48:38;;;;;;;5.70;2.10;;;;;;;;;;5023822;28;20372;-46
2021/04/30 03:51:05;;;;;;;3.00;1.80;;;;;;;;;;5016230;28;20080;-46
2021/04/30 03:53:31;;;;;;;4.13;1.52;;;;;;;;;;5029534;28;20597;-45
2021/04/30 03:55:57;;;;;;;1.30;1.20;;;;;;;;;;5029292;28;20095;-44
2021/04/30 03:58:24;;;;;;;1.38;1.30;;;;;;;;;;5019141;28;20103;-47
2021/04/30 04:00:50;;;;;;;3.55;1.73;;;;;;;;;;5024312;28;20040;-48
2021/04/30 04:03:16;;;;;;;1.55;1.55;;;;;;;;;;5019526;28;20108;-49
2021/04/30 04:05:42;;;;;;;2.90;1.52;;;;;;;;;;5030636;28;20049;-45
2021/04/30 04:08:09;;;;;;;3.00;1.48;;;;;;;;;;5028251;28;20053;-48
2021/04/30 04:10:36;;;;;;;1.30;1.20;;;;;;;;;;5031513;28;20041;-46
2021/04/30 04:13:13;;;;;;;3.33;1.63;;;;;;;;;;5029451;28;20379;-45
2021/04/30 04:15:39;;;;;;;3.67;1.30;;;;;;;;;;5023353;28;20042;-45
2021/04/30 04:18:05;;;;;;;4.72;1.40;;;;;;;;;;5021462;28;20481;-48
2021/04/30 04:20:32;;;;;;;2.25;1.48;;;;;;;;;;5026564;28;20041;-45
2021/04/30 04:22:58;;;;;;;2.28;1.17;;;;;;;;;;5029394;28;20040;-45
2021/04/30 04:25:24;;;;;;;4.85;1.30;;;;;;;;;;5021772;28;20041;-44
2021/04/30 04:27:50;;;;;;;2.78;1.23;;;;;;;;;;5019440;28;20095;-46
2021/04/30 04:30:17;;;;;;;3.38;1.10;;;;;;;;;;5029485;28;20029;-46
2021/04/30 04:32:43;;;;;;;1.67;1.17;;;;;;;;;;5028147;28;20033;-46
2021/04/30 04:35:10;;;;;;;6.13;1.52;;;;;;;;;;5029206;28;20042;-46
2021/04/30 04:37:36;;;;;;;1.10;1.10;;;;;;;;;;5020191;28;20042;-44
2021/04/30 04:40:03;;;;;;;2.38;1.33;;;;;;;;;;5022203;28;20033;-49
2021/04/30 04:42:29;;;;;;;1.63;1.40;;;;;;;;;;5013761;28;20077;-44
2021/04/30 04:44:55;;;;;;;1.15;1.10;;;;;;;;;;5027879;28;20033;-46
2021/04/30 04:47:22;;;;;;;3.92;1.40;;;;;;;;;;5017415;28;20050;-48
2021/04/30 04:49:51;;;;;;;4.50;1.40;;;;;;;;;;5029324;28;20128;-49
2021/04/30 04:52:17;;;;;;;1.80;1.50;;;;;;;;;;5028051;28;20437;-46
2021/04/30 04:54:43;;;;;;;4.15;2.00;;;;;;;;;;5029427;28;20398;-44
2021/04/30 04:57:10;;;;;;;2.00;1.52;;;;;;;;;;5023321;28;20025;-46
2021/04/30 04:59:36;;;;;;;1.05;1.05;;;;;;;;;;5020597;28;20804;-44
2021/04/30 05:02:02;;;;;;;2.58;1.42;;;;;;;;;;5029125;28;20120;-44
2021/04/30 05:04:29;;;;;;;1.25;1.25;;;;;;;;;;5022674;28;20041;-44
2021/04/30 05:06:56;;;;;;;3.55;1.20;;;;;;;;;;5023140;28;20034;-44
2021/04/30 05:09:22;;;;;;;1.77;1.38;;;;;;;;;;5023610;28;20386;-44
2021/04/30 05:11:49;;;;;;;2.13;1.33;;;;;;;;;;5024312;28;20037;-45
2021/04/30 05:14:15;;;;;;;3.58;2.15;;;;;;;;;;5025334;28;20041;-45
2021/04/30 05:17:01;;;;;;;2.42;1.50;;;;;;;;;;5023026;28;20117;-45
2021/04/30 05:19:28;;;;;;;4.10;1.88;;;;;;;;;;5015269;28;20387;-45
2021/04/30 05:21:54;;;;;;;2.05;1.65;;;;;;;;;;5019039;28;20061;-46
2021/04/30 05:24:21;;;;;;;1.98;1.88;;;;;;;;;;5019118;28;20037;-46
2021/04/30 05:26:47;;;;;;;1.55;1.20;;;;;;;;;;5030089;28;20037;-45
2021/04/30 05:29:15;;;;;;;1.73;1.63;;;;;;;;;;5022542;28;20058;-46
2021/04/30 05:31:41;;;;;;;2.13;1.63;;;;;;;;;;5019584;28;20132;-46
2021/04/30 05:34:07;;;;;;;1.55;1.45;;;;;;;;;;5021522;28;20038;-46
2021/04/30 05:36:34;;;;;;;1.42;1.20;;;;;;;;;;5018198;28;20034;-46
2021/04/30 05:39:00;;;;;;;1.90;1.13;;;;;;;;;;5029949;28;20049;-47
2021/04/30 05:41:27;;;;;;;1.30;1.20;;;;;;;;;;5028516;28;20053;-48
2021/04/30 05:43:53;;;;;;;3.90;2.35;;;;;;;;;;5026703;28;20056;-46
2021/04/30 05:46:19;;;;;;;6.50;2.90;;;;;;;;;;5027363;28;20041;-47
2021/04/30 05:48:46;;;;;;;7.00;3.53;;;;;;;;;;5030718;28;20127;-45
2021/04/30 05:51:12;;;;;;;3.40;3.20;;;;;;;;;;5037110;28;20065;-45
2021/04/30 05:53:38;;;;;;;5.53;2.50;;;;;;;;;;5030029;28;20111;-47
2021/04/30 05:56:24;;;;;;;4.50;2.95;;;;;;;;;;5013074;28;20646;-45
2021/04/30 05:58:51;;;;;;;6.95;3.35;;;;;;;;;;5026932;28;20065;-46
2021/04/30 06:01:18;;;;;;;4.32;3.03;;;;;;;;;;5022577;28;20053;-48
2021/04/30 06:03:44;;;;;;;8.18;2.78;;;;;;;;;;5027609;28;20128;-46
2021/04/30 06:06:11;;;;;;;5.68;3.75;;;;;;;;;;5023835;28;20103;-45
2021/04/30 06:08:37;;;;;;;6.13;3.15;;;;;;;;;;5026734;28;20075;-45
2021/04/30 06:11:03;;;;;;;4.95;2.50;;;;;;;;;;5026496;28;20037;-47
2021/04/30 06:13:30;;;;;;;3.38;3.08;;;;;;;;;;5017497;28;20041;-45
2021/04/30 06:15:56;;;;;;;9.13;4.32;;;;;;;;;;5028989;28;20041;-49
2021/04/30 06:18:23;;;;;;;2.88;2.42;;;;;;;;;;5028657;28;20037;-45
2021/04/30 06:20:49;;;;;;;2.80;1.85;;;;;;;;;;5028760;28;20052;-46
2021/04/30 06:23:16;;;;;;;2.40;2.22;;;;;;;;;;5026892;28;20522;-44
2021/04/30 06:25:42;;;;;;;6.30;2.03;;;;;;;;;;5020560;28;20442;-48
2021/04/30 06:28:08;;;;;;;2.22;1.90;;;;;;;;;;5023306;28;20068;-47
2021/04/30 06:30:35;;;;;;;2.63;2.30;;;;;;;;;;5016822;28;20029;-45
2021/04/30 06:33:01;;;;;;;7.90;2.20;;;;;;;;;;5028828;28;20125;-45
2021/04/30 06:35:29;;;;;;;3.45;3.35;;;;;;;;;;5025706;28;20041;-47
2021/04/30 06:37:55;;;;;;;6.20;2.97;;;;;;;;;;5023556;28;20042;-45
2021/04/30 06:40:21;;;;;;;3.10;2.90;;;;;;;;;;5027450;28;20059;-45
2021/04/30 06:42:47;;;;;;;6.28;1.60;;;;;;;;;;5026540;28;20061;-45
2021/04/30 06:45:14;;;;;;;3.08;1.63;;;;;;;;;;5027738;28;20076;-46
2021/04/30 06:47:40;;;;;;;1.75;1.63;;;;;;;;;;5024882;28;20437;-46
2021/04/30 06:50:07;;;;;;;2.97;1.20;;;;;;;;;;5028045;28;20033;-46
2021/04/30 06:52:34;;;;;;;1.92;1.15;;;;;;;;;;5025196;28;20052;-46
2021/04/30 06:55:00;;;;;;;2.22;2.00;;;;;;;;;;5029249;28;20115;-46
2021/04/30 06:57:40;;;;;;;1.75;1.23;;;;;;;;;;5030736;28;20052;-44
2021/04/30 07:00:07;;;;;;;1.90;1.70;;;;;;;;;;5030826;28;20034;-46
2021/04/30 07:02:33;;;;;;;3.33;2.13;;;;;;;;;;5033103;28;20053;-47
2021/04/30 07:05:00;;;;;;;3.70;1.50;;;;;;;;;;5029557;28;20037;-45
2021/04/30 07:07:26;;;;;;;1.95;1.17;;;;;;;;;;5021658;28;20050;-46
2021/04/30 07:09:52;;;;;;;1.92;1.30;;;;;;;;;;5031117;28;20099;-45
2021/04/30 07:12:19;;;;;;;2.78;1.48;;;;;;;;;;5028147;28;20041;-45
2021/04/30 07:14:46;;;;;;;1.33;1.20;;;;;;;;;;5031486;28;20527;-46
2021/04/30 07:17:12;;;;;;;1.75;1.58;;;;;;;;;;5029293;28;20084;-47
2021/04/30 07:19:39;;;;;;;2.97;1.20;;;;;;;;;;5018724;28;20037;-46
2021/04/30 07:22:09;;;;;;;1.48;1.38;;;;;;;;;;5028640;28;20425;-45
2021/04/30 07:24:37;;;;;;;1.38;1.27;;;;;;;;;;5020362;28;20053;-44
2021/04/30 07:27:04;;;;;;;1.65;1.38;;;;;;;;;;5028950;28;20049;-46
2021/04/30 07:29:30;;;;;;;1.98;1.65;;;;;;;;;;5029956;28;20042;-46
2021/04/30 07:31:58;;;;;;;3.75;1.20;;;;;;;;;;5030739;28;20065;-45
2021/04/30 07:34:38;;;;;;;2.78;1.10;;;;;;;;;;5030766;28;20076;-45
2021/04/30 07:37:05;;;;;;;1.90;1.05;;;;;;;;;;5028328;28;20049;-45
2021/04/30 07:39:32;;;;;;;3.17;1.20;;;;;;;;;;5030849;28;20057;-46
2021/04/30 07:41:59;;;;;;;1.42;1.10;;;;;;;;;;5028117;28;20033;-46
2021/04/30 07:44:26;;;;;;;4.03;1.45;;;;;;;;;;5030591;28;20068;-48
2021/04/30 07:46:52;;;;;;;2.47;1.00;;;;;;;;;;5029888;28;20050;-45
2021/04/30 07:49:19;;;;;;;2.45;1.20;;;;;;;;;;5021166;28;20102;-44
2021/04/30 07:51:46;;;;;;;1.75;0.90;;;;;;;;;;5031336;28;20042;-46
2021/04/30 07:54:12;;;;;;;2.97;1.02;;;;;;;;;;5029934;28;20033;-46
2021/04/30 07:56:39;;;;;;;0.90;0.90;;;;;;;;;;5029386;28;20038;-45
2021/04/30 07:59:05;;;;;;;3.90;0.90;;;;;;;;;;5027690;28;20517;-44
2021/04/30 08:01:31;;;;;;;2.30;1.15;;;;;;;;;;5017612;28;20505;-47
2021/04/30 08:03:58;;;;;;;0.90;0.90;;;;;;;;;;5026656;28;20038;-50
2021/04/30 08:06:24;;;;;;;1.90;1.13;;;;;;;;;;5019842;28;20125;-47
2021/04/30 08:08:50;;;;;;;1.23;1.00;;;;;;;;;;5023209;28;20394;-47
2021/04/30 08:11:17;;;;;;;1.00;1.00;;;;;;;;;;5024933;28;20038;-45
2021/04/30 08:13:43;;;;;;;3.13;0.95;;;;;;;;;;5030744;28;20033;-45
2021/04/30 08:16:09;;;;;;;1.58;0.93;;;;;;;;;;5026583;28;20053;-45
2021/04/30 08:18:36;;;;;;;2.97;0.70;;;;;;;;;;5029942;28;20039;-45
2021/04/30 08:21:03;;;;;;;1.27;0.82;;;;;;;;;;5028562;28;20610;-45
2021/04/30 08:23:29;;;;;;;1.48;0.80;;;;;;;;;;5027688;28;20047;-46
2021/04/30 08:25:56;;;;;;;1.92;0.80;;;;;;;;;;5031127;28;20396;-45
2021/04/30 08:28:22;;;;;;;2.08;0.70;;;;;;;;;;5027728;28;20120;-46
2021/04/30 08:30:49;;;;;;;2.75;0.80;;;;;;;;;;5029490;28;20042;-44
2021/04/30 08:33:15;;;;;;;0.95;0.80;;;;;;;;;;5030940;28;20685;-45
2021/04/30 08:35:41;;;;;;;3.10;0.80;;;;;;;;;;5029202;28;20482;-45
2021/04/30 08:38:07;;;;;;;1.20;0.82;;;;;;;;;;5030078;28;20041;-45
2021/04/30 08:40:34;;;;;;;0.88;0.80;;;;;;;;;;5029422;28;20041;-47
2021/04/30 08:43:00;;;;;;;2.85;0.70;;;;;;;;;;5019666;28;20047;-48
2021/04/30 08:45:27;;;;;;;1.17;0.80;;;;;;;;;;5024423;28;20481;-48
2021/04/30 08:47:54;;;;;;;1.95;0.80;;;;;;;;;;5018232;28;20179;-47
2021/04/30 08:50:20;;;;;;;0.70;0.70;;;;;;;;;;5030538;28;20033;-49
2021/04/30 08:52:46;;;;;;;0.70;0.70;;;;;;;;;;5028947;28;20037;-45
2021/04/30 08:55:15;;;;;;;2.30;0.70;;;;;;;;;;5017921;28;20184;-45
2021/04/30 08:57:52;;;;;;;0.73;0.73;;;;;;;;;;5027678;28;20037;-46
2021/04/30 09:00:18;;;;;;;1.10;0.70;;;;;;;;;;5015928;28;20413;-44
2021/04/30 09:02:45;;;;;;;3.08;0.70;;;;;;;;;;5028903;28;20386;-46
2021/04/30 09:05:13;;;;;;;1.75;0.95;;;;;;;;;;5028745;28;20045;-44
2021/04/30 09:07:40;;;;;;;3.15;0.80;;;;;;;;;;5015444;28;20663;-44
2021/04/30 09:10:08;;;;;;;4.50;0.80;;;;;;;;;;5028213;28;20047;-45
2021/04/30 09:12:35;;;;;;;1.40;1.00;;;;;;;;;;5016825;28;20107;-45
2021/04/30 09:15:03;;;;;;;1.58;0.80;;;;;;;;;;5028538;28;20048;-43
2021/04/30 09:17:30;;;;;;;3.33;0.80;;;;;;;;;;5028191;28;20771;-45
2021/04/30 09:20:02;;;;;;;5.20;0.70;;;;;;;;;;5029476;28;20041;-45
2021/04/30 09:22:30;;;;;;;1.77;0.70;;;;;;;;;;5025290;28;20065;-43
2021/04/30 09:24:57;;;;;;;3.08;0.70;;;;;;;;;;5019426;28;20045;-45
2021/04/30 09:27:30;;;;;;;1.67;1.00;;;;;;;;;;5028119;28;20485;-45
2021/04/30 09:29:56;;;;;;;;;;;;;;;;;;5027754;28;20728;-46
2021/04/30 09:32:22;;;;;;;1.88;0.90;;;;;;;;;;5030125;28;19921;-44
2021/04/30 09:34:54;;;;;;;2.70;0.90;;;;;;;;;;5025493;28;20075;-46
2021/04/30 09:37:21;;;;;;;2.80;1.10;;;;;;;;;;5019333;28;20100;-45
2021/04/30 09:39:50;;;;;;;0.80;0.80;;;;;;;;;;5028375;28;20620;-44
2021/04/30 09:42:20;;;;;;;6.95;0.90;;;;;;;;;;5027897;28;20045;-45
2021/04/30 09:44:48;;;;;;;3.58;1.20;;;;;;;;;;5028304;28;20084;-44
2021/04/30 09:47:22;;;;;;;2.58;0.70;;;;;;;;;;5026308;28;20065;-46
2021/04/30 09:49:50;;;;;;;3.60;1.08;;;;;;;;;;5029789;28;20095;-45
2021/04/30 09:52:17;;;;;;;6.20;0.70;;;;;;;;;;5021655;28;20037;-45
2021/04/30 09:54:43;;;;;;;0.98;0.70;;;;;;;;;;5018281;28;20470;-44
2021/04/30 09:57:17;;;;;;;3.08;0.85;;;;;;;;;;5028341;28;20059;-48
2021/04/30 09:59:52;;;;;;;1.15;0.80;;;;;;;;;;5025506;28;20042;-47
2021/04/30 10:02:19;;;;;;;1.40;0.98;;;;;;;;;;5029907;28;20040;-45
2021/04/30 10:04:46;;;;;;;1.08;0.70;;;;;;;;;;5028315;28;20110;-44
2021/04/30 10:07:14;;;;;;;2.58;0.93;;;;;;;;;;5019244;28;20568;-45
2021/04/30 10:09:41;;;;;;;4.38;0.75;;;;;;;;;;5028208;28;20041;-44
2021/04/30 10:12:24;;;;;;;1.25;0.70;;;;;;;;;;5026415;28;20033;-44
2021/04/30 10:14:51;;;;;;;2.38;0.70;;;;;;;;;;5011230;28;20022;-45
2021/04/30 10:17:18;;;;;;;2.78;0.60;;;;;;;;;;5028634;28;20025;-44
2021/04/30 10:19:45;;;;;;;1.92;0.80;;;;;;;;;;5025960;28;20029;-43
2021/04/30 10:22:16;;;;;;;3.08;0.80;;;;;;;;;;5027309;28;20037;-45
2021/04/30 10:24:45;;;;;;;0.80;0.80;;;;;;;;;;5026777;28;20048;-44
2021/04/30 10:27:15;;;;;;;1.35;0.60;;;;;;;;;;5027289;28;20124;-45
2021/04/30 10:29:41;;;;;;;2.60;0.70;;;;;;;;;;5026448;28;20045;-45
2021/04/30 10:32:09;;;;;;;1.55;0.60;;;;;;;;;;5018796;28;20041;-46
2021/04/30 10:34:38;;;;;;;1.63;0.70;;;;;;;;;;5025138;28;20475;-45
2021/04/30 10:37:06;;;;;;;0.70;0.70;;;;;;;;;;5025797;28;20037;-43
2021/04/30 10:39:35;;;;;;;1.00;0.60;;;;;;;;;;5032727;28;20095;-47
2021/04/30 10:42:08;;;;;;;2.30;0.70;;;;;;;;;;5031232;28;20084;-46
2021/04/30 10:44:39;;;;;;;3.10;1.00;;;;;;;;;;5031778;28;20103;-48
2021/04/30 10:47:08;;;;;;;2.20;0.70;;;;;;;;;;5020264;28;20077;-45
2021/04/30 10:49:36;;;;;;;2.80;0.80;;;;;;;;;;5025841;28;20092;-54
2021/04/30 10:52:06;;;;;;;2.17;0.82;;;;;;;;;;5016793;28;20048;-48
2021/04/30 10:54:35;;;;;;;3.28;0.77;;;;;;;;;;5029229;28;20041;-44
2021/04/30 10:57:01;;;;;;;6.90;1.00;;;;;;;;;;5041739;28;20041;-43
2021/04/30 10:59:52;;;;;;;1.25;0.70;;;;;;;;;;5028705;28;20045;-48
2021/04/30 11:02:21;;;;;;;1.20;0.70;;;;;;;;;;5028198;28;20037;-44
2021/04/30 11:05:07;;;;;;;0.77;0.70;;;;;;;;;;5017297;28;20040;-44
2021/04/30 11:07:34;;;;;;;1.73;0.70;;;;;;;;;;5019870;28;20053;-45
2021/04/30 11:10:21;;;;;;;4.20;0.70;;;;;;;;;;5023529;28;20033;-44
2021/04/30 11:13:15;;;;;;;1.30;0.80;;;;;;;;;;5014452;28;20171;-48
2021/04/30 11:15:45;;;;;;;0.70;0.70;;;;;;;;;;5030530;28;20512;-46
2021/04/30 11:18:12;;;;;;;0.85;0.80;;;;;;;;;;5030828;28;20044;-48
2021/04/30 11:20:40;;;;;;;1.33;0.70;;;;;;;;;;5031860;28;20052;-47
2021/04/30 11:23:24;;;;;;;1.27;0.65;;;;;;;;;;5029244;28;20050;-47
2021/04/30 11:25:57;;;;;;;4.30;0.80;;;;;;;;;;5024940;28;20045;-47
2021/04/30 11:28:23;;;;;;;;;;;;;;;;;;5026511;28;20046;-46
2021/04/30 11:30:58;;;;;;;4.72;0.80;;;;;;;;;;5021446;28;20208;-48
2021/04/30 11:33:25;;;;;;;2.05;0.70;;;;;;;;;;5020875;28;20062;-46
2021/04/30 11:35:51;;;;;;;4.38;0.95;;;;;;;;;;5028312;28;20389;-46
2021/04/30 11:38:39;;;;;;;2.50;0.73;;;;;;;;;;5027173;28;20037;-47
2021/04/30 11:41:11;;;;;;;5.85;0.80;;;;;;;;;;5005961;28;20073;-47
2021/04/30 11:43:38;;;;;;;0.60;0.60;;;;;;;;;;5022656;28;20029;-42
2021/04/30 11:46:05;;;;;;;0.80;0.60;;;;;;;;;;5030691;28;20041;-44
2021/04/30 11:48:32;;;;;;;2.83;0.70;;;;;;;;;;5030382;28;20530;-44
2021/04/30 11:50:59;;;;;;;4.10;1.02;;;;;;;;;;5019286;28;20041;-45
2021/04/30 11:53:26;;;;;;;1.05;0.65;;;;;;;;;;5029138;28;20073;-43
2021/04/30 11:55:53;;;;;;;0.70;0.70;;;;;;;;;;5022428;28;20057;-43
2021/04/30 11:58:20;;;;;;;0.70;0.70;;;;;;;;;;5031182;28;20038;-44
2021/04/30 12:00:49;;;;;;;1.35;0.70;;;;;;;;;;5027962;28;20534;-43
2021/04/30 12:03:16;;;;;;;1.20;0.70;;;;;;;;;;5029585;28;20747;-43
2021/04/30 12:05:44;;;;;;;3.47;0.80;;;;;;;;;;5031298;28;20040;-43
2021/04/30 12:08:10;;;;;;;0.70;0.70;;;;;;;;;;5028305;28;20068;-42
2021/04/30 12:10:37;;;;;;;1.65;0.95;;;;;;;;;;5019061;28;20077;-42
2021/04/30 12:13:06;;;;;;;1.20;0.60;;;;;;;;;;5025677;28;20104;-44
2021/04/30 12:15:34;;;;;;;1.27;0.63;;;;;;;;;;5022057;28;20050;-43
2021/04/30 12:18:01;;;;;;;1.63;0.60;;;;;;;;;;5030671;28;20666;-43
2021/04/30 12:20:29;;;;;;;3.95;0.70;;;;;;;;;;5027243;28;20112;-43
2021/04/30 12:22:57;;;;;;;2.15;0.70;;;;;;;;;;5017426;28;20034;-44
2021/04/30 12:25:26;;;;;;;1.92;0.70;;;;;;;;;;5025505;28;20048;-46
2021/04/30 12:27:53;;;;;;;1.80;0.80;;;;;;;;;;5030385;28;20045;-45
2021/04/30 12:30:25;;;;;;;2.17;0.60;;;;;;;;;;5028198;28;20034;-43
2021/04/30 12:32:51;;;;;;;1.92;0.70;;;;;;;;;;5028118;28;20037;-44
2021/04/30 12:35:18;;;;;;;3.58;0.70;;;;;;;;;;5030289;28;20063;-43
2021/04/30 12:38:01;;;;;;;1.58;0.70;;;;;;;;;;5030309;28;20044;-45
2021/04/30 12:40:28;;;;;;;1.95;0.80;;;;;;;;;;5023688;28;20029;-44
2021/04/30 12:42:56;;;;;;;7.63;0.68;;;;;;;;;;5029081;28;20485;-44
2021/04/30 12:45:23;;;;;;;2.22;0.70;;;;;;;;;;5030072;28;20048;-41
2021/04/30 12:47:50;;;;;;;1.92;0.70;;;;;;;;;;5025239;28;20084;-41
2021/04/30 12:50:17;;;;;;;2.20;0.70;;;;;;;;;;5023793;28;20712;-40
2021/04/30 12:52:47;;;;;;;1.15;0.63;;;;;;;;;;5010798;28;20127;-41
2021/04/30 12:55:20;;;;;;;4.47;0.70;;;;;;;;;;5026235;28;20069;-42
2021/04/30 12:57:57;;;;;;;4.18;0.60;;;;;;;;;;5027871;28;20034;-42
2021/04/30 13:00:23;;;;;;;2.67;0.65;;;;;;;;;;5025545;28;20041;-41
2021/04/30 13:02:50;;;;;;;3.63;0.60;;;;;;;;;;5023989;28;20121;-40
2021/04/30 13:05:16;;;;;;;2.58;0.60;;;;;;;;;;5015755;28;20121;-42
2021/04/30 13:07:43;;;;;;;2.70;0.80;;;;;;;;;;5026509;28;20048;-41
2021/04/30 13:10:20;;;;;;;5.40;0.70;;;;;;;;;;5027552;28;20048;-45
2021/04/30 13:12:46;;;;;;;2.15;0.63;;;;;;;;;;5026030;28;20455;-43
2021/04/30 13:15:23;;;;;;;3.03;0.82;;;;;;;;;;5025547;28;20037;-41
2021/04/30 13:17:56;;;;;;;2.80;0.70;;;;;;;;;;5017793;28;20465;-41
2021/04/30 13:20:27;;;;;;;2.00;0.70;;;;;;;;;;5026774;28;20466;-43
2021/04/30 13:23:00;;;;;;;3.05;0.70;;;;;;;;;;5027514;28;20052;-41
2021/04/30 13:25:47;;;;;;;5.93;0.65;;;;;;;;;;5029763;28;20068;-41
2021/04/30 13:28:19;;;;;;;1.70;0.60;;;;;;;;;;5026729;28;20037;-41
2021/04/30 13:30:50;;;;;;;6.40;0.68;;;;;;;;;;5027633;28;20107;-41
2021/04/30 13:33:20;;;;;;;1.17;0.75;;;;;;;;;;5028695;28;20489;-42
2021/04/30 13:35:48;;;;;;;0.68;0.63;;;;;;;;;;5026597;28;20026;-40
2021/04/30 13:38:23;;;;;;;3.33;0.70;;;;;;;;;;5029833;28;20045;-43
2021/04/30 13:40:50;;;;;;;3.13;0.70;;;;;;;;;;5025241;28;20034;-44
2021/04/30 13:43:29;;;;;;;1.05;0.70;;;;;;;;;;5020521;28;20042;-42
2021/04/30 13:46:07;;;;;;;2.70;0.73;;;;;;;;;;5020649;28;20505;-43
2021/04/30 13:48:35;;;;;;;0.98;0.60;;;;;;;;;;5021757;28;20057;-44
2021/04/30 13:51:02;;;;;;;2.75;0.70;;;;;;;;;;5030639;28;20041;-43
2021/04/30 13:53:28;;;;;;;4.15;0.70;;;;;;;;;;5026219;28;20045;-45
2021/04/30 13:55:54;;;;;;;2.92;0.70;;;;;;;;;;5028109;28;20470;-42
2021/04/30 13:58:20;;;;;;;6.07;0.75;;;;;;;;;;5025712;28;20113;-42
2021/04/30 14:00:46;;;;;;;2.03;0.60;;;;;;;;;;5027866;28;20046;-41
2021/04/30 14:03:13;;;;;;;2.72;0.70;;;;;;;;;;5030099;28;20038;-41
2021/04/30 14:05:39;;;;;;;2.72;0.60;;;;;;;;;;5031583;28;20037;-41
2021/04/30 14:08:06;;;;;;;3.00;0.60;;;;;;;;;;5027602;28;20037;-41
2021/04/30 14:10:32;;;;;;;1.75;0.70;;;;;;;;;;5031832;28;20033;-41
2021/04/30 14:12:58;;;;;;;3.17;0.80;;;;;;;;;;5029813;28;20124;-40
2021/04/30 14:15:25;;;;;;;3.05;0.70;;;;;;;;;;5033588;28;20057;-40
2021/04/30 14:17:51;;;;;;;2.58;0.70;;;;;;;;;;5031633;28;20091;-41
2021/04/30 14:20:17;;;;;;;2.17;0.70;;;;;;;;;;5031709;28;20040;-41
2021/04/30 14:22:44;;;;;;;3.20;0.68;;;;;;;;;;5032224;28;20463;-41
2021/04/30 14:25:11;;;;;;;3.95;0.70;;;;;;;;;;5032442;28;20386;-40
2021/04/30 14:27:41;;;;;;;4.72;0.70;;;;;;;;;;5033149;28;20626;-41
2021/04/30 14:30:07;;;;;;;5.10;1.25;;;;;;;;;;5031341;28;20061;-42
2021/04/30 14:32:35;;;;;;;3.13;0.70;;;;;;;;;;5033584;28;20041;-42
2021/04/30 14:35:05;;;;;;;0.70;0.70;;;;;;;;;;5029203;28;20033;-41
2021/04/30 14:37:31;;;;;;;3.10;0.70;;;;;;;;;;5031568;28;20042;-43
2021/04/30 14:39:57;;;;;;;1.70;0.80;;;;;;;;;;5031854;28;20045;-43
2021/04/30 14:42:23;;;;;;;3.05;0.80;;;;;;;;;;5031350;28;20040;-42
2021/04/30 14:44:50;;;;;;;3.80;0.90;;;;;;;;;;5031064;28;20056;-41
2021/04/30 14:47:16;;;;;;;0.80;0.80;;;;;;;;;;5027917;28;20069;-41